Aérodrome :
LOGIN :

S'inscrire | Disclaimer

   EN    FR    IT 

 










Légende :    VFR   VFR Marginal   IFR   IFR Intensif   IFR Très Intensif
Visi : 
Plafond : 
>= 8 km
>= 3000ft
5 à 8 km
1000 à 3000 ft
1500m à 5 km
500 à 1000 ft
800 à 1500m
200 à 500 ft
< 800m
< 200 ft
Symboles :   Orages  Brouillard  Fortes neiges  Fortes précipitations  Vent > 20 kt
SIGMETs :   Divers  Orages  Givrage  Turbulence  Onde Orograph.  Cendres Volcan.







- Altitude de l'aérodrome : 465 ft
- Code IATA : LEJ


EDDP - Leipzig Halle

DERNIER METAR :
  • 261650Z 24009KT 9999 FEW035CB SCT080 10/06 Q1015 TEMPO 27015G25KT

METARs EXPIRÉS :
  • 261620Z 28011KT 9999 -SHRA SCT036CB SCT060 11/07 Q1015 TEMPO 27015G25KT
  • 261550Z 26015G33KT 9999 -SHRA BKN040CB 11/05 Q1015 TEMPO SHRA
  • 261520Z 24015KT 9999 FEW045CB 13/04 Q1015 TEMPO 27020G30KT SHRA
  • 261450Z 26015KT 9999 -SHRA FEW045CB 14/04 Q1015 TEMPO 27020G30KT SHRA
  • 261420Z 27017KT 9999 FEW044TCU SCT080 15/04 Q1015 TEMPO 27015G25KT

TAF TAF EDDP
Valide du 26 à 12h jusqu'au 27 à 12h UTC


261100Z 2612/2712 26020G30KT 9999 SCT030CB
TEMPO 2612/2619 SHRA
BECMG 2616/2619 26009KT NSC
BECMG 2619/2621 20007KT
Pas de NOTAMs connus pour ce terrain.



MET'MAP, la Météo Aéronautique d'un coup d'oeil ! - Copyright ORBIFLY Décembre 2007 - Disclaimer

ORBIFLY MET'MAP TEAM :

Programmation & Développement : Alexandra Zaïnal
Conception & Développement : Baudouin d'Aumeries
Co-Programmation & Développement : Marc-Olivier Méhu
Soutien technique & logistique : Manuel Goepfert

Contact : metmap@orbifly.com




SOURCES & CREDITS :

   NOAA